Point Harbor, North Carolina
Current Conditions -  °F | °C
As of 10:35 PM on Sunday 23 Nov 2014 (Local Time) from KFFA Reporting Station
Overcast Overcast  
Wind Chill: 66°   Ceiling: 7000
Heat Index: 66°   Visibility: 7mi
Dew Point: 62°   Wind: 12mph
Humidity: 86%   Direction: 160°SSE
Pressure: 29.93"   Gusts: 26mph
Location:  36.08°N, 75.79°W
Report Text: KFFA 240335Z AUTO 16010G23KT 120V200 7SM SCT024 BKN070 OVC080 19/17 A2993 RMK AO2 T01890166
Loading
Personal Weather Stations






























Interactive Weather Map New forecast layout! Learn more

10-Day Weather Forecast

Advertisements
Track Severe Weather on mobile